To NAV CANADA Home Page Login to a new session Search on AWWS site Disclaimer Vers la page française équivalente Tips FAQ What's new on the site To the Forecasts and Observations / NOTAM section To "File a Flight Plan" website Publications and other links Update of the User's profile FIC Telephone Numbers My Weather Data Folder Route Weather Data Regional Weather Data Local Weather Data To the Forecasts and Observations / NOTAM section
Request Generated 01/24/2022 at 23:22:53 UTC . Weather information available at that time is displayed.


Go to a specific product

Save this request - Inactive

METAR/TAF

CALGARY/YYC CALGARY INTL/AB    

METAR CYYC 242300Z 35018G27KT 15SM SCT035 BKN084 02/M03 A3013 RMK SC3AC4 SLP248=
METAR CYYC 242200Z 35018G25KT 15SM BKN027 02/M03 A3012 RMK SC7 SLP244=
METAR CYYC 242100Z 35016G23KT 10SM OVC040 01/M02 A3011 RMK SC8 SLP243=

TAF CYYC 242042Z 2421/2518 34015G25KT 6SM -SN OVC030 TEMPO 2421/2423
3SM -SHSN BR
FM242300 34012G22KT P6SM FEW015 BKN040
FM250600 34008KT P6SM FEW040
FM250900 27005KT P6SM SKC
FM251100 27005KT P6SM BKN220
RMK NXT FCST BY 250000Z=

CALGARY/SPRINGBANK/AB    (show WxCam)

SPECI CYBW 242311Z AUTO 34014G23KT 9SM BKN041 BKN048 OVC071 01/M04 A3013 RMK SLP250=
SPECI CYBW 242305Z AUTO 34019G27KT 9SM -UP BKN045 BKN060 OVC073 01/M04 A3013 RMK SLP249=
METAR CYBW 242300Z AUTO 34018G27KT 9SM -RA -UP BKN041 BKN048 OVC076 01/M04 A3013 RMK SLP255=
SPECI CYBW 242259Z AUTO 34019G27KT 9SM -RA -UP BKN039 BKN048 BKN055 OVC075 01/M04 A3013 RMK SLP249=
SPECI CYBW 242256Z AUTO 34018G26KT 9SM -RA SCT039 BKN048 OVC076 01/M04 A3012 RMK SLP247=
METAR CYBW 242200Z AUTO 34012G18KT 9SM SCT043 SCT055 OVC068 01/M03 A3011 RMK SLP248=
SPECI CYBW 242152Z AUTO 33012G20KT 9SM SCT050 OVC066 01/M03 A3011 RMK SLP243=
SPECI CYBW 242145Z AUTO 33013G20KT 9SM -RA BKN048 OVC066 01/M03 A3011 RMK SLP243=
SPECI CYBW 242139Z AUTO 34016G23KT 9SM -RA -UP BKN048 OVC066 01/M03 A3011 RMK SLP243=
SPECI CYBW 242136Z AUTO 33017G26KT 9SM -UP OVC047 01/M03 A3011 RMK SLP243=
SPECI CYBW 242130Z AUTO 34019G26KT 9SM -RA -UP BKN044 OVC050 01/M03 A3011 RMK SLP243=
SPECI CYBW 242116Z AUTO 34016G22KT 9SM -RA BKN038 OVC048 01/M03 A3011 RMK SLP243=
SPECI CYBW 242115Z AUTO 34017G22KT 9SM BKN038 OVC044 01/M03 A3011 RMK SLP242=
SPECI CYBW 242105Z AUTO 33012KT 9SM -RA BKN035 OVC042 01/M03 A3011 RMK SLP242=
METAR CYBW 242100Z AUTO 34012G17KT 9SM -RA -UP FEW030 BKN036 OVC043 01/M03 A3011 RMK SLP248=

TAF AMD CYBW 242018Z 2420/2505 33014G24KT P6SM SCT020 OVC050 TEMPO
2420/2422 2 1/2SM -SHSN BR OVC020
FM242200 35008G18KT P6SM BKN030 OVC060 TEMPO 2422/2424 5SM -SN
BR
FM250000 34006KT P6SM BKN050
RMK FCST BASED ON AUTO OBS. NXT FCST BY 250000Z=


GRAPHICAL FA CLOUDS & WEATHER FORECASTS
To the Product Selector
Graphical FA gfacn32      

GRAPHICAL FA ICING, TURBULENCE & FREEZING LEVEL FORECASTS
To the Product Selector
Graphical FA gfacn32      

Your time UTC time
Weather data provided by Environment Canada and NAV CANADA